Time;durP1;ratioP1;P1;durP2;ratioP2;P2;SDS_P1;SDS_P2;PMS_P1;PMS_P2;Temp;Humidity;BMP_temperature;BMP_pressure;BME280_temperature;BME280_humidity;BME280_pressure;Samples;Min_cycle;Max_cycle;Signal;HPM_P1;HPM_P2
2021/03/29 00:02:06;;;;;;;7.68;3.30;;;;;;;;;;4984446;28;20812;-90
2021/03/29 00:04:52;;;;;;;14.52;3.97;;;;;;;;;;4996591;28;20026;-87
2021/03/29 00:07:41;;;;;;;10.98;3.78;;;;;;;;;;4997768;28;20034;-89
2021/03/29 00:10:27;;;;;;;9.07;3.00;;;;;;;;;;5008571;28;20034;-88
2021/03/29 00:13:13;;;;;;;8.20;2.92;;;;;;;;;;4990010;28;20040;-88
2021/03/29 00:16:05;;;;;;;8.85;3.17;;;;;;;;;;4993072;28;20036;-87
2021/03/29 00:18:51;;;;;;;8.57;3.20;;;;;;;;;;4996416;28;20053;-86
2021/03/29 00:21:37;;;;;;;9.85;3.63;;;;;;;;;;4992986;28;20023;-85
2021/03/29 00:24:22;;;;;;;8.18;3.08;;;;;;;;;;4993054;28;20026;-85
2021/03/29 00:27:08;;;;;;;9.02;3.00;;;;;;;;;;4986893;28;20092;-85
2021/03/29 00:29:53;;;;;;;11.70;4.05;;;;;;;;;;4975302;28;20184;-85
2021/03/29 00:32:40;;;;;;;8.40;3.33;;;;;;;;;;4986850;28;20438;-86
2021/03/29 00:35:26;;;;;;;9.10;3.55;;;;;;;;;;4987684;28;20026;-85
2021/03/29 00:38:13;;;;;;;10.27;3.22;;;;;;;;;;4999544;28;20018;-85
2021/03/29 00:41:03;;;;;;;11.48;3.60;;;;;;;;;;4988649;28;20030;-86
2021/03/29 00:43:49;;;;;;;6.47;3.08;;;;;;;;;;4982904;28;20018;-84
2021/03/29 00:46:36;;;;;;;9.05;3.67;;;;;;;;;;4985159;28;20038;-87
2021/03/29 00:49:22;;;;;;;9.88;3.00;;;;;;;;;;4985822;28;20027;-87
2021/03/29 00:52:07;;;;;;;7.90;3.42;;;;;;;;;;4990667;28;20027;-88
2021/03/29 00:54:53;;;;;;;7.90;2.90;;;;;;;;;;4987284;28;20034;-88
2021/03/29 00:57:39;;;;;;;9.85;3.70;;;;;;;;;;5001887;28;20053;-88
2021/03/29 01:00:33;;;;;;;7.70;3.08;;;;;;;;;;4998966;28;20069;-88
2021/03/29 01:03:20;;;;;;;10.18;3.42;;;;;;;;;;4985746;28;20037;-88
2021/03/29 01:06:06;;;;;;;9.60;3.40;;;;;;;;;;4986105;28;20026;-89
2021/03/29 01:08:53;;;;;;;8.93;3.67;;;;;;;;;;5001209;28;20050;-88
2021/03/29 01:11:40;;;;;;;10.05;3.13;;;;;;;;;;4994565;28;20022;-88
2021/03/29 01:14:28;;;;;;;7.35;2.75;;;;;;;;;;4989015;28;20037;-87
2021/03/29 01:17:13;;;;;;;7.93;3.03;;;;;;;;;;5003611;28;20038;-87
2021/03/29 01:20:01;;;;;;;9.38;3.70;;;;;;;;;;4996712;28;20081;-86
2021/03/29 01:22:50;;;;;;;8.02;3.03;;;;;;;;;;4987257;28;20026;-88
2021/03/29 01:25:42;;;;;;;9.68;2.97;;;;;;;;;;4984468;28;20358;-87
2021/03/29 01:28:28;;;;;;;8.93;2.95;;;;;;;;;;4986446;28;20040;-88
2021/03/29 01:31:13;;;;;;;7.55;3.08;;;;;;;;;;4987346;28;20104;-88
2021/03/29 01:33:59;;;;;;;10.25;3.47;;;;;;;;;;4991289;28;20052;-88
2021/03/29 01:36:45;;;;;;;8.90;2.97;;;;;;;;;;5000143;28;20109;-86
2021/03/29 01:39:31;;;;;;;7.55;3.13;;;;;;;;;;4985438;28;20045;-86
2021/03/29 01:42:17;;;;;;;9.18;2.83;;;;;;;;;;4987327;28;20030;-87
2021/03/29 01:45:03;;;;;;;9.60;3.47;;;;;;;;;;4996449;28;20058;-86
2021/03/29 01:47:48;;;;;;;6.18;2.50;;;;;;;;;;4986731;28;20026;-86
2021/03/29 01:50:35;;;;;;;7.20;2.60;;;;;;;;;;5000383;28;20030;-88
2021/03/29 01:53:23;;;;;;;11.95;3.10;;;;;;;;;;4987898;28;20113;-88
2021/03/29 01:56:08;;;;;;;10.60;3.10;;;;;;;;;;4980785;28;20069;-88
2021/03/29 01:58:53;;;;;;;7.22;2.70;;;;;;;;;;4987359;28;20057;-87
2021/03/29 02:01:39;;;;;;;8.93;2.72;;;;;;;;;;4998364;28;20061;-88
2021/03/29 02:04:24;;;;;;;10.57;3.10;;;;;;;;;;4981473;28;20481;-86
2021/03/29 02:07:10;;;;;;;8.70;3.08;;;;;;;;;;4986293;28;20026;-86
2021/03/29 02:09:55;;;;;;;9.32;3.13;;;;;;;;;;4986365;28;20050;-87
2021/03/29 02:12:41;;;;;;;10.35;3.05;;;;;;;;;;4984744;28;20038;-86
2021/03/29 02:15:28;;;;;;;11.30;3.90;;;;;;;;;;4993280;28;20037;-85
2021/03/29 02:18:16;;;;;;;7.90;3.28;;;;;;;;;;4999735;28;20031;-86
2021/03/29 02:21:03;;;;;;;8.43;3.05;;;;;;;;;;5003038;28;20026;-86
2021/03/29 02:23:50;;;;;;;7.30;2.95;;;;;;;;;;5000480;28;20053;-86
2021/03/29 02:26:37;;;;;;;7.38;3.25;;;;;;;;;;4979581;28;20023;-87
2021/03/29 02:29:27;;;;;;;5.88;2.70;;;;;;;;;;4998944;28;20076;-86
2021/03/29 02:32:12;;;;;;;;;;;;;;;;;;4997511;28;20026;-86
2021/03/29 02:34:57;;;;;;;17.25;3.40;;;;;;;;;;4988199;28;19914;-86
2021/03/29 02:37:46;;;;;;;4.45;2.30;;;;;;;;;;4994145;28;20111;-86
2021/03/29 02:40:32;;;;;;;8.63;3.10;;;;;;;;;;4994866;28;20022;-86
2021/03/29 02:43:18;;;;;;;7.97;3.25;;;;;;;;;;4981637;28;20038;-85
2021/03/29 02:46:04;;;;;;;11.18;2.95;;;;;;;;;;4989584;28;20037;-85
2021/03/29 02:48:50;;;;;;;6.35;2.78;;;;;;;;;;4982316;28;20034;-85
2021/03/29 02:51:39;;;;;;;7.68;2.40;;;;;;;;;;5007285;28;20034;-84
2021/03/29 02:54:25;;;;;;;8.13;2.70;;;;;;;;;;4981852;28;20018;-85
2021/03/29 02:57:10;;;;;;;9.38;2.83;;;;;;;;;;4997337;28;20022;-85
2021/03/29 02:59:56;;;;;;;7.88;2.85;;;;;;;;;;4993580;28;20100;-85
2021/03/29 03:02:42;;;;;;;7.85;3.03;;;;;;;;;;4986428;28;20033;-84
2021/03/29 03:05:29;;;;;;;5.65;2.65;;;;;;;;;;4985854;28;20033;-85
2021/03/29 03:08:14;;;;;;;5.82;2.45;;;;;;;;;;4982820;28;20480;-84
2021/03/29 03:11:00;;;;;;;7.88;3.50;;;;;;;;;;4983469;28;20085;-85
2021/03/29 03:13:46;;;;;;;9.20;3.15;;;;;;;;;;4983251;28;20034;-84
2021/03/29 03:16:32;;;;;;;9.23;2.97;;;;;;;;;;4988343;28;20134;-85
2021/03/29 03:19:18;;;;;;;9.32;3.10;;;;;;;;;;4997296;28;21247;-85
2021/03/29 03:22:03;;;;;;;11.48;3.70;;;;;;;;;;4973447;28;20123;-87
2021/03/29 03:24:48;;;;;;;8.18;2.90;;;;;;;;;;4984143;28;20052;-86
2021/03/29 03:27:34;;;;;;;9.13;2.83;;;;;;;;;;4989692;28;20579;-86
2021/03/29 03:30:21;;;;;;;6.15;3.00;;;;;;;;;;4980587;28;20034;-88
2021/03/29 03:33:07;;;;;;;8.20;2.92;;;;;;;;;;4997334;28;20022;-87
2021/03/29 03:35:53;;;;;;;9.90;3.00;;;;;;;;;;4984089;28;20038;-86
2021/03/29 03:38:41;;;;;;;8.07;2.92;;;;;;;;;;4999999;28;20431;-87
2021/03/29 03:41:28;;;;;;;7.85;2.83;;;;;;;;;;4980080;28;20063;-86
2021/03/29 03:44:14;;;;;;;9.75;3.90;;;;;;;;;;4996628;28;20032;-85
2021/03/29 03:46:59;;;;;;;8.85;3.50;;;;;;;;;;5002187;28;20030;-84
2021/03/29 03:49:45;;;;;;;9.18;3.50;;;;;;;;;;4988290;28;20030;-84
2021/03/29 03:52:30;;;;;;;10.40;3.38;;;;;;;;;;4998868;28;20039;-85
2021/03/29 03:55:16;;;;;;;7.00;3.05;;;;;;;;;;4994751;28;20250;-84
2021/03/29 03:58:02;;;;;;;8.68;3.00;;;;;;;;;;4989720;28;20086;-85
2021/03/29 04:00:47;;;;;;;8.50;2.63;;;;;;;;;;4987110;28;20373;-85
2021/03/29 04:03:33;;;;;;;6.55;2.88;;;;;;;;;;5005335;28;20038;-85
2021/03/29 04:06:18;;;;;;;6.95;2.80;;;;;;;;;;4995419;28;20030;-85
2021/03/29 04:09:03;;;;;;;7.07;3.00;;;;;;;;;;5008738;28;20118;-85
2021/03/29 04:11:51;;;;;;;6.78;2.80;;;;;;;;;;4982849;28;20497;-85
2021/03/29 04:14:37;;;;;;;9.57;2.97;;;;;;;;;;5003647;28;20030;-85
2021/03/29 04:17:22;;;;;;;10.50;3.15;;;;;;;;;;4981967;28;20571;-85
2021/03/29 04:20:08;;;;;;;9.50;2.85;;;;;;;;;;4991566;28;20026;-85
2021/03/29 04:22:53;;;;;;;8.23;3.10;;;;;;;;;;4999663;28;20041;-85
2021/03/29 04:25:39;;;;;;;9.48;2.85;;;;;;;;;;4974693;28;20018;-86
2021/03/29 04:28:24;;;;;;;10.88;4.10;;;;;;;;;;4986437;28;20487;-85
2021/03/29 04:31:10;;;;;;;8.82;2.58;;;;;;;;;;4983241;28;20145;-85
2021/03/29 04:33:55;;;;;;;11.15;3.33;;;;;;;;;;4982953;28;20030;-85
2021/03/29 04:36:40;;;;;;;8.38;2.78;;;;;;;;;;4997550;28;20185;-85
2021/03/29 04:39:25;;;;;;;6.90;2.97;;;;;;;;;;4989461;28;20030;-85
2021/03/29 04:42:11;;;;;;;6.57;2.47;;;;;;;;;;4984438;28;20507;-85
2021/03/29 04:44:56;;;;;;;11.52;3.05;;;;;;;;;;4986125;28;20030;-85
2021/03/29 04:47:41;;;;;;;7.30;3.28;;;;;;;;;;4987989;28;20381;-86
2021/03/29 04:50:26;;;;;;;9.15;3.28;;;;;;;;;;5000880;28;20026;-85
2021/03/29 04:53:11;;;;;;;9.48;3.35;;;;;;;;;;4998899;28;20480;-85
2021/03/29 04:55:57;;;;;;;13.40;3.15;;;;;;;;;;4996825;28;20173;-85
2021/03/29 04:58:42;;;;;;;8.82;2.85;;;;;;;;;;4984238;28;20035;-85
2021/03/29 05:01:27;;;;;;;6.75;3.00;;;;;;;;;;4986536;28;20026;-84
2021/03/29 05:04:12;;;;;;;10.65;3.17;;;;;;;;;;4983566;28;20030;-85
2021/03/29 05:06:58;;;;;;;7.25;3.42;;;;;;;;;;4989379;28;20022;-85
2021/03/29 05:09:43;;;;;;;7.50;3.13;;;;;;;;;;4985965;28;20022;-85
2021/03/29 05:12:28;;;;;;;9.82;3.35;;;;;;;;;;4988074;28;20038;-84
2021/03/29 05:15:13;;;;;;;4.53;2.90;;;;;;;;;;4983347;28;20064;-83
2021/03/29 05:17:59;;;;;;;7.60;2.88;;;;;;;;;;4987885;28;20023;-84
2021/03/29 05:20:44;;;;;;;9.43;3.45;;;;;;;;;;4991214;28;20026;-84
2021/03/29 05:23:29;;;;;;;7.88;3.08;;;;;;;;;;4982631;28;20030;-85
2021/03/29 05:26:15;;;;;;;9.00;2.80;;;;;;;;;;4994743;28;20509;-85
2021/03/29 05:29:00;;;;;;;4.05;2.40;;;;;;;;;;4979262;28;20050;-84
2021/03/29 05:31:45;;;;;;;9.02;3.10;;;;;;;;;;4982568;28;20072;-85
2021/03/29 05:34:30;;;;;;;7.70;3.20;;;;;;;;;;4990314;28;20029;-85
2021/03/29 05:37:16;;;;;;;11.15;3.17;;;;;;;;;;4997720;28;20110;-87
2021/03/29 05:40:03;;;;;;;6.60;3.03;;;;;;;;;;4977978;28;20015;-87
2021/03/29 05:42:49;;;;;;;11.30;3.58;;;;;;;;;;4985536;28;20034;-91
2021/03/29 05:45:37;;;;;;;10.30;3.65;;;;;;;;;;5002816;28;20090;-90
2021/03/29 05:48:22;;;;;;;10.60;3.10;;;;;;;;;;4998301;28;20310;-89
2021/03/29 05:51:08;;;;;;;7.88;2.83;;;;;;;;;;4993109;28;20475;-87
2021/03/29 05:53:53;;;;;;;8.95;3.30;;;;;;;;;;4971690;28;20096;-89
2021/03/29 05:56:40;;;;;;;9.45;2.78;;;;;;;;;;4969116;28;20035;-88
2021/03/29 05:59:33;;;;;;;11.50;3.30;;;;;;;;;;4987192;28;20050;-87
2021/03/29 06:02:32;;;;;;;11.27;3.50;;;;;;;;;;4988175;28;20034;-89
2021/03/29 06:05:37;;;;;;;9.82;3.20;;;;;;;;;;4996100;28;20026;-90
2021/03/29 06:08:24;;;;;;;9.65;4.18;;;;;;;;;;4987997;28;20080;-87
2021/03/29 06:11:27;;;;;;;6.60;3.10;;;;;;;;;;5004702;28;20041;-89
2021/03/29 06:14:14;;;;;;;7.68;4.00;;;;;;;;;;4996425;28;20034;-85
2021/03/29 06:17:02;;;;;;;8.85;3.30;;;;;;;;;;4987717;28;20392;-90
2021/03/29 06:19:48;;;;;;;10.40;4.05;;;;;;;;;;4979612;28;20186;-86
2021/03/29 06:22:35;;;;;;;11.05;2.95;;;;;;;;;;4983668;28;20486;-85
2021/03/29 06:25:21;;;;;;;10.07;3.42;;;;;;;;;;4995454;28;20061;-86
2021/03/29 06:28:22;;;;;;;11.77;3.47;;;;;;;;;;4983917;28;20444;-86
2021/03/29 06:31:17;;;;;;;7.85;3.85;;;;;;;;;;4981484;28;20036;-90
2021/03/29 06:34:03;;;;;;;9.00;3.90;;;;;;;;;;5001511;28;20035;-84
2021/03/29 06:36:48;;;;;;;9.35;3.45;;;;;;;;;;4994943;28;20480;-86
2021/03/29 06:39:37;;;;;;;8.32;3.45;;;;;;;;;;4972044;28;20540;-86
2021/03/29 06:42:30;;;;;;;13.65;3.55;;;;;;;;;;4985535;28;20604;-86
2021/03/29 06:45:16;;;;;;;9.70;3.47;;;;;;;;;;4997886;28;20364;-84
2021/03/29 06:48:17;;;;;;;15.07;3.55;;;;;;;;;;4969305;28;20484;-87
2021/03/29 06:51:08;;;;;;;10.75;4.00;;;;;;;;;;4982933;28;20521;-88
2021/03/29 06:53:53;;;;;;;;;;;;;;;;;;4987158;28;20033;-86
2021/03/29 06:56:44;;;;;;;8.25;4.00;;;;;;;;;;4989810;28;20390;-84
2021/03/29 06:59:36;;;;;;;14.98;4.53;;;;;;;;;;4994282;28;20042;-86
2021/03/29 07:02:34;;;;;;;11.07;3.90;;;;;;;;;;4999551;28;20041;-87
2021/03/29 07:05:20;;;;;;;13.00;3.17;;;;;;;;;;4971900;28;20042;-82
2021/03/29 07:08:07;;;;;;;13.23;4.00;;;;;;;;;;4982467;28;20061;-87
2021/03/29 07:10:52;;;;;;;16.90;4.60;;;;;;;;;;4974623;28;20165;-89
2021/03/29 07:13:39;;;;;;;13.75;4.15;;;;;;;;;;4992885;28;20080;-87
2021/03/29 07:16:25;;;;;;;15.23;4.75;;;;;;;;;;4988829;28;20029;-87
2021/03/29 07:19:10;;;;;;;10.18;3.50;;;;;;;;;;4996750;28;20049;-88
2021/03/29 07:21:56;;;;;;;8.85;3.92;;;;;;;;;;4993346;28;20026;-87
2021/03/29 07:24:42;;;;;;;11.00;4.55;;;;;;;;;;4990137;28;20045;-88
2021/03/29 07:27:28;;;;;;;8.70;4.50;;;;;;;;;;4990231;28;20057;-87
2021/03/29 07:30:15;;;;;;;15.55;4.80;;;;;;;;;;4998765;28;20080;-90
2021/03/29 07:33:02;;;;;;;10.40;4.00;;;;;;;;;;4990695;28;20084;-88
2021/03/29 07:35:48;;;;;;;9.93;4.15;;;;;;;;;;4991095;28;20033;-88
2021/03/29 07:38:53;;;;;;;9.93;4.15;;;;;;;;;;5003793;28;20062;-86
2021/03/29 07:41:38;;;;;;;14.55;3.92;;;;;;;;;;5004328;28;20022;-86
2021/03/29 07:44:23;;;;;;;10.90;4.30;;;;;;;;;;4984414;28;20106;-86
2021/03/29 07:47:09;;;;;;;18.52;5.45;;;;;;;;;;4984904;28;20080;-85
2021/03/29 07:49:54;;;;;;;11.90;4.50;;;;;;;;;;4993986;28;20212;-83
2021/03/29 07:52:40;;;;;;;13.32;4.18;;;;;;;;;;5005187;28;20042;-84
2021/03/29 07:55:27;;;;;;;12.02;3.78;;;;;;;;;;4994254;28;20034;-85
2021/03/29 07:58:16;;;;;;;13.32;4.18;;;;;;;;;;4990135;28;20540;-84
2021/03/29 08:01:04;;;;;;;12.88;3.95;;;;;;;;;;4990429;28;20033;-84
2021/03/29 08:03:53;;;;;;;11.40;4.00;;;;;;;;;;4988489;28;20018;-84
2021/03/29 08:06:39;;;;;;;14.50;3.72;;;;;;;;;;4987710;28;20025;-84
2021/03/29 08:09:41;;;;;;;9.65;3.45;;;;;;;;;;4990511;28;20088;-85
2021/03/29 08:12:27;;;;;;;10.65;3.72;;;;;;;;;;4989009;28;20049;-84
2021/03/29 08:15:12;;;;;;;11.68;4.22;;;;;;;;;;4992640;28;20026;-84
2021/03/29 08:17:58;;;;;;;8.95;2.83;;;;;;;;;;4987042;28;20034;-85
2021/03/29 08:20:52;;;;;;;8.32;3.33;;;;;;;;;;4986914;28;20018;-83
2021/03/29 08:23:38;;;;;;;7.63;3.05;;;;;;;;;;4978097;28;20144;-84
2021/03/29 08:26:35;;;;;;;8.40;3.67;;;;;;;;;;4999072;28;20038;-84
2021/03/29 08:29:28;;;;;;;5.88;2.63;;;;;;;;;;4989609;28;20080;-84
2021/03/29 08:32:18;;;;;;;10.43;3.03;;;;;;;;;;5000799;28;20031;-83
2021/03/29 08:35:06;;;;;;;8.63;4.28;;;;;;;;;;4990173;28;20029;-84
2021/03/29 08:37:52;;;;;;;9.10;3.58;;;;;;;;;;4999509;28;20042;-84
2021/03/29 08:40:38;;;;;;;6.60;3.13;;;;;;;;;;5001648;28;20489;-86
2021/03/29 08:43:23;;;;;;;7.63;2.92;;;;;;;;;;4995309;28;20519;-87
2021/03/29 08:46:08;;;;;;;8.02;3.50;;;;;;;;;;5004348;28;20120;-88
2021/03/29 08:48:53;;;;;;;7.15;2.88;;;;;;;;;;5010452;28;20022;-87
2021/03/29 08:51:39;;;;;;;7.78;3.10;;;;;;;;;;4982928;28;20489;-91
2021/03/29 08:54:24;;;;;;;12.40;3.67;;;;;;;;;;4990620;28;20034;-86
2021/03/29 08:57:09;;;;;;;8.70;3.20;;;;;;;;;;4986218;28;20026;-88
2021/03/29 08:59:58;;;;;;;8.35;3.08;;;;;;;;;;4988576;28;20396;-92
2021/03/29 09:02:43;;;;;;;8.52;3.15;;;;;;;;;;5003226;28;20025;-86
2021/03/29 09:05:30;;;;;;;9.82;3.28;;;;;;;;;;4994123;28;20026;-89
2021/03/29 09:08:16;;;;;;;7.03;2.80;;;;;;;;;;5010025;28;20044;-88
2021/03/29 09:11:02;;;;;;;5.60;2.80;;;;;;;;;;5018936;28;20029;-91
2021/03/29 09:13:47;;;;;;;7.28;2.90;;;;;;;;;;4997175;28;20439;-88
2021/03/29 09:16:33;;;;;;;9.18;3.00;;;;;;;;;;5003576;28;20029;-89
2021/03/29 09:19:19;;;;;;;9.68;2.75;;;;;;;;;;4985684;28;20469;-87
2021/03/29 09:22:04;;;;;;;10.38;3.42;;;;;;;;;;4984524;28;20029;-86
2021/03/29 09:24:50;;;;;;;9.68;3.17;;;;;;;;;;4987340;28;20413;-87
2021/03/29 09:27:44;;;;;;;6.03;2.53;;;;;;;;;;5001375;28;20117;-89
2021/03/29 09:30:29;;;;;;;7.95;2.97;;;;;;;;;;5000084;28;20118;-87
2021/03/29 09:33:16;;;;;;;7.57;2.70;;;;;;;;;;4976708;28;20030;-89
2021/03/29 09:36:12;;;;;;;4.70;2.50;;;;;;;;;;4993181;28;20547;-89
2021/03/29 09:39:02;;;;;;;8.20;2.40;;;;;;;;;;5000706;28;20026;-87
2021/03/29 09:41:51;;;;;;;6.30;2.88;;;;;;;;;;4993658;28;20027;-88
2021/03/29 09:44:36;;;;;;;5.47;2.83;;;;;;;;;;4990246;28;20038;-88
2021/03/29 09:47:22;;;;;;;7.95;3.33;;;;;;;;;;4997639;28;20026;-87
2021/03/29 09:50:09;;;;;;;9.20;2.90;;;;;;;;;;5010775;28;20018;-87
2021/03/29 09:53:06;;;;;;;5.38;2.47;;;;;;;;;;5013814;28;20031;-87
2021/03/29 09:55:52;;;;;;;11.10;2.63;;;;;;;;;;5018106;28;20019;-86
2021/03/29 09:59:05;;;;;;;7.20;2.95;;;;;;;;;;4975970;28;20065;-87
2021/03/29 10:01:58;;;;;;;8.85;3.28;;;;;;;;;;4988592;28;20030;-86
2021/03/29 10:04:58;;;;;;;8.13;2.90;;;;;;;;;;4979461;28;20041;-88
2021/03/29 10:07:55;;;;;;;5.07;2.42;;;;;;;;;;4998201;28;20484;-87
2021/03/29 10:10:40;;;;;;;8.18;3.13;;;;;;;;;;4993116;28;20045;-79
2021/03/29 10:13:38;;;;;;;7.28;2.30;;;;;;;;;;4984638;28;20153;-79
2021/03/29 10:16:25;;;;;;;11.63;2.83;;;;;;;;;;4996930;28;20041;-80
2021/03/29 10:19:12;;;;;;;8.48;2.78;;;;;;;;;;4988839;28;20384;-79
2021/03/29 10:22:07;;;;;;;8.38;3.15;;;;;;;;;;4983832;28;20058;-81
2021/03/29 10:25:00;;;;;;;10.07;2.80;;;;;;;;;;4985550;28;20018;-81
2021/03/29 10:27:47;;;;;;;8.65;6.18;;;;;;;;;;4998075;28;20034;-80
2021/03/29 10:30:33;;;;;;;22.90;16.80;;;;;;;;;;4984440;28;20030;-80
2021/03/29 10:33:19;;;;;;;14.70;11.07;;;;;;;;;;5003474;28;20065;-80
2021/03/29 10:36:11;;;;;;;10.32;4.50;;;;;;;;;;4987747;28;20060;-80
2021/03/29 10:38:56;;;;;;;92.70;83.50;;;;;;;;;;4997418;28;20124;-80
2021/03/29 10:41:42;;;;;;;7.32;5.47;;;;;;;;;;4984094;28;20034;-79
2021/03/29 10:44:27;;;;;;;67.18;60.75;;;;;;;;;;4983779;28;20046;-80
2021/03/29 10:47:13;;;;;;;50.78;45.53;;;;;;;;;;4981252;28;20034;-85
2021/03/29 10:49:58;;;;;;;15.38;8.68;;;;;;;;;;4983560;28;20096;-83
2021/03/29 10:52:43;;;;;;;18.33;16.13;;;;;;;;;;4991430;28;20116;-81
2021/03/29 10:55:29;;;;;;;13.63;10.13;;;;;;;;;;4990752;28;20109;-83
2021/03/29 10:58:14;;;;;;;23.95;20.40;;;;;;;;;;4995099;28;20051;-82
2021/03/29 11:00:59;;;;;;;17.45;13.93;;;;;;;;;;4990964;28;20435;-80
2021/03/29 11:03:44;;;;;;;19.63;17.55;;;;;;;;;;4999825;28;20022;-82
2021/03/29 11:06:30;;;;;;;16.08;11.55;;;;;;;;;;4989470;28;20062;-81
2021/03/29 11:09:15;;;;;;;5.38;3.17;;;;;;;;;;4972855;28;20030;-83
2021/03/29 11:12:00;;;;;;;8.18;4.78;;;;;;;;;;4993061;28;20049;-84
2021/03/29 11:14:45;;;;;;;9.75;4.53;;;;;;;;;;4978188;28;20030;-80
2021/03/29 11:17:33;;;;;;;10.32;5.78;;;;;;;;;;4995401;28;20038;-86
2021/03/29 11:20:18;;;;;;;12.03;8.60;;;;;;;;;;4997093;28;20030;-85
2021/03/29 11:23:03;;;;;;;11.25;6.07;;;;;;;;;;4997718;28;20109;-82
2021/03/29 11:25:48;;;;;;;10.48;4.97;;;;;;;;;;4987360;28;20473;-82
2021/03/29 11:28:34;;;;;;;6.43;3.05;;;;;;;;;;4969722;28;20037;-83
2021/03/29 11:31:21;;;;;;;6.53;3.85;;;;;;;;;;5001362;28;20023;-83
2021/03/29 11:34:07;;;;;;;8.77;5.82;;;;;;;;;;4986742;28;20627;-84
2021/03/29 11:36:52;;;;;;;6.65;3.22;;;;;;;;;;4984252;28;20027;-83
2021/03/29 11:39:37;;;;;;;9.93;6.68;;;;;;;;;;4986546;28;20037;-82
2021/03/29 11:42:22;;;;;;;12.48;6.28;;;;;;;;;;4999178;28;20117;-83
2021/03/29 11:45:08;;;;;;;9.88;5.20;;;;;;;;;;4992311;28;20022;-83
2021/03/29 11:47:53;;;;;;;7.43;4.97;;;;;;;;;;5002945;28;20056;-83
2021/03/29 11:50:39;;;;;;;11.88;6.20;;;;;;;;;;4998869;28;20400;-83
2021/03/29 11:53:25;;;;;;;8.30;3.55;;;;;;;;;;4976420;28;20500;-81
2021/03/29 11:56:10;;;;;;;9.60;5.78;;;;;;;;;;4984544;28;20065;-81
2021/03/29 11:58:55;;;;;;;10.15;4.63;;;;;;;;;;4994852;28;20058;-82
2021/03/29 12:01:49;;;;;;;4.78;3.13;;;;;;;;;;5003017;28;20041;-82
2021/03/29 12:05:20;;;;;;;10.52;4.72;;;;;;;;;;4996115;28;20776;-80
2021/03/29 12:07:53;;;;;;;9.03;5.00;;;;;;;;;;4993492;28;20050;-86
2021/03/29 12:13:43;;;;;;;12.45;4.90;;;;;;;;;;4990252;28;20111;-83
2021/03/29 12:16:33;;;;;;;7.18;3.92;;;;;;;;;;4988096;28;20511;-83
2021/03/29 12:19:18;;;;;;;7.60;4.07;;;;;;;;;;5006858;28;20041;-83
2021/03/29 12:22:17;;;;;;;7.30;3.80;;;;;;;;;;4995059;28;20581;-83
2021/03/29 12:25:02;;;;;;;;;;;;;;;;;;5001441;28;20026;-84
2021/03/29 12:27:48;;;;;;;9.57;3.85;;;;;;;;;;4991827;28;19921;-84
2021/03/29 12:30:36;;;;;;;6.63;2.90;;;;;;;;;;4989333;28;20030;-83
2021/03/29 12:33:22;;;;;;;4.72;2.47;;;;;;;;;;5003283;28;20026;-83
2021/03/29 12:36:08;;;;;;;9.27;3.70;;;;;;;;;;4990121;28;20033;-83
2021/03/29 12:38:59;;;;;;;6.72;2.40;;;;;;;;;;4989332;28;20376;-84
2021/03/29 12:41:59;;;;;;;7.65;2.63;;;;;;;;;;4997356;28;20467;-82
2021/03/29 12:44:45;;;;;;;5.47;2.70;;;;;;;;;;4992445;28;20019;-85
2021/03/29 12:47:32;;;;;;;7.22;2.83;;;;;;;;;;4987463;28;20072;-85
2021/03/29 12:50:18;;;;;;;11.65;4.00;;;;;;;;;;4986860;28;20041;-86
2021/03/29 12:53:03;;;;;;;6.85;2.55;;;;;;;;;;5001863;28;20026;-90
2021/03/29 12:55:49;;;;;;;10.90;4.07;;;;;;;;;;4999629;28;20026;-86
2021/03/29 12:58:35;;;;;;;9.85;2.90;;;;;;;;;;5000902;28;20077;-87
2021/03/29 13:01:20;;;;;;;6.88;2.63;;;;;;;;;;4985139;28;20030;-87
2021/03/29 13:04:11;;;;;;;4.97;2.38;;;;;;;;;;4996299;28;20041;-86
2021/03/29 13:07:43;;;;;;;8.82;4.20;;;;;;;;;;4988186;28;20105;-81
2021/03/29 13:10:48;;;;;;;7.20;3.08;;;;;;;;;;4984806;28;20449;-84
2021/03/29 13:13:18;;;;;;;9.10;3.20;;;;;;;;;;4985486;28;20428;-85
2021/03/29 13:16:04;;;;;;;7.65;2.50;;;;;;;;;;4996591;28;20125;-86
2021/03/29 13:18:49;;;;;;;6.50;2.45;;;;;;;;;;4984603;28;20088;-85
2021/03/29 13:21:34;;;;;;;9.40;3.47;;;;;;;;;;5001598;28;20029;-86
2021/03/29 13:24:28;;;;;;;6.05;2.53;;;;;;;;;;4976328;28;20030;-84
2021/03/29 13:27:14;;;;;;;6.32;2.67;;;;;;;;;;4987384;28;20121;-84
2021/03/29 13:30:03;;;;;;;9.32;2.78;;;;;;;;;;4989818;28;20455;-83
2021/03/29 13:32:52;;;;;;;8.68;2.35;;;;;;;;;;4985464;28;20101;-82
2021/03/29 13:35:39;;;;;;;11.20;2.40;;;;;;;;;;4985887;28;20057;-84
2021/03/29 13:38:28;;;;;;;5.72;2.60;;;;;;;;;;4984909;28;20042;-84
2021/03/29 13:41:13;;;;;;;5.88;2.00;;;;;;;;;;4987905;28;20388;-86
2021/03/29 13:43:59;;;;;;;7.75;2.80;;;;;;;;;;4995371;28;20022;-85
2021/03/29 13:46:44;;;;;;;6.13;2.83;;;;;;;;;;5001256;28;20045;-84
2021/03/29 13:49:30;;;;;;;6.60;2.80;;;;;;;;;;4982324;28;20038;-85
2021/03/29 13:52:16;;;;;;;9.85;2.28;;;;;;;;;;4987459;28;20127;-87
2021/03/29 13:55:02;;;;;;;7.53;2.15;;;;;;;;;;5001208;28;20034;-86
2021/03/29 13:57:51;;;;;;;8.35;2.47;;;;;;;;;;5003100;28;20033;-87
2021/03/29 14:00:37;;;;;;;3.58;2.00;;;;;;;;;;4987014;28;20519;-85
2021/03/29 14:03:22;;;;;;;7.25;2.25;;;;;;;;;;4997967;28;20102;-88
2021/03/29 14:06:08;;;;;;;8.85;2.50;;;;;;;;;;4987421;28;20034;-86
2021/03/29 14:08:54;;;;;;;9.32;2.60;;;;;;;;;;4987276;28;20037;-82
2021/03/29 14:11:40;;;;;;;5.80;2.47;;;;;;;;;;4996221;28;20026;-81
2021/03/29 14:14:25;;;;;;;5.72;2.60;;;;;;;;;;4984505;28;20030;-82
2021/03/29 14:17:11;;;;;;;9.05;3.05;;;;;;;;;;4994582;28;20034;-86
2021/03/29 14:19:56;;;;;;;4.88;2.33;;;;;;;;;;4969105;28;20080;-86
2021/03/29 14:22:41;;;;;;;12.43;3.00;;;;;;;;;;4991981;28;20029;-84
2021/03/29 14:25:27;;;;;;;7.05;2.38;;;;;;;;;;4979929;28;20026;-83
2021/03/29 14:28:13;;;;;;;6.55;2.08;;;;;;;;;;4980450;28;20080;-83
2021/03/29 14:30:58;;;;;;;7.97;2.45;;;;;;;;;;4986391;28;20018;-83
2021/03/29 14:33:45;;;;;;;7.00;2.08;;;;;;;;;;4986552;28;20033;-82
2021/03/29 14:39:38;;;;;;;8.95;2.05;;;;;;;;;;4991807;28;20026;-86
2021/03/29 14:42:29;;;;;;;7.38;2.20;;;;;;;;;;4996961;28;20029;-87
2021/03/29 14:45:14;;;;;;;5.40;2.50;;;;;;;;;;4994674;28;20025;-83
2021/03/29 14:48:00;;;;;;;7.47;2.25;;;;;;;;;;4984996;28;20150;-84
2021/03/29 14:50:45;;;;;;;5.55;2.05;;;;;;;;;;4982643;28;20018;-85
2021/03/29 14:53:30;;;;;;;3.25;1.55;;;;;;;;;;5003768;28;20026;-83
2021/03/29 14:56:15;;;;;;;6.22;1.83;;;;;;;;;;4985088;28;20026;-84
2021/03/29 14:59:07;;;;;;;7.07;2.50;;;;;;;;;;4989246;28;20081;-84
2021/03/29 15:01:53;;;;;;;7.10;3.03;;;;;;;;;;4974856;28;20559;-85
2021/03/29 15:04:44;;;;;;;3.78;2.00;;;;;;;;;;4987883;28;20466;-82
2021/03/29 15:07:30;;;;;;;6.53;2.22;;;;;;;;;;4984743;28;20030;-82
2021/03/29 15:10:15;;;;;;;6.15;2.20;;;;;;;;;;4985821;28;20022;-83
2021/03/29 15:13:00;;;;;;;10.52;2.08;;;;;;;;;;4998573;28;20026;-83
2021/03/29 15:15:45;;;;;;;9.68;3.45;;;;;;;;;;5000225;28;20039;-83
2021/03/29 15:18:31;;;;;;;6.60;2.25;;;;;;;;;;4983902;28;20025;-82
2021/03/29 15:21:16;;;;;;;5.93;2.40;;;;;;;;;;4986503;28;20038;-86
2021/03/29 15:24:02;;;;;;;6.90;3.38;;;;;;;;;;4990466;28;20061;-88
2021/03/29 15:26:47;;;;;;;6.05;2.08;;;;;;;;;;4983702;28;20117;-84
2021/03/29 15:29:34;;;;;;;6.43;2.65;;;;;;;;;;4984403;28;20037;-87
2021/03/29 15:32:19;;;;;;;6.00;2.58;;;;;;;;;;4999142;28;20022;-88
2021/03/29 15:35:06;;;;;;;7.45;2.65;;;;;;;;;;4988823;28;20038;-87
2021/03/29 15:37:54;;;;;;;6.40;2.53;;;;;;;;;;4983558;28;20061;-84
2021/03/29 15:40:46;;;;;;;6.85;2.70;;;;;;;;;;4983339;28;20165;-82
2021/03/29 15:43:31;;;;;;;3.85;2.00;;;;;;;;;;4996355;28;20380;-85
2021/03/29 15:46:17;;;;;;;8.57;2.67;;;;;;;;;;4977592;28;20121;-86
2021/03/29 15:49:02;;;;;;;6.32;2.05;;;;;;;;;;4993217;28;20030;-85
2021/03/29 15:51:49;;;;;;;5.65;2.40;;;;;;;;;;5003087;28;20436;-86
2021/03/29 15:54:35;;;;;;;11.52;5.38;;;;;;;;;;4982468;28;20512;-86
2021/03/29 15:57:21;;;;;;;13.05;6.80;;;;;;;;;;5001889;28;20034;-87
2021/03/29 16:00:08;;;;;;;11.02;3.78;;;;;;;;;;4996161;28;20050;-86
2021/03/29 16:02:57;;;;;;;9.63;2.40;;;;;;;;;;4977753;28;20030;-86
2021/03/29 16:05:43;;;;;;;7.35;2.65;;;;;;;;;;4991096;28;20029;-86
2021/03/29 16:08:28;;;;;;;11.65;2.63;;;;;;;;;;4990214;28;20054;-86
2021/03/29 16:11:14;;;;;;;6.38;2.08;;;;;;;;;;4987703;28;20165;-87
2021/03/29 16:13:59;;;;;;;4.97;2.60;;;;;;;;;;5003538;28;20117;-86
2021/03/29 16:16:45;;;;;;;7.15;2.65;;;;;;;;;;4988468;28;20080;-86
2021/03/29 16:19:30;;;;;;;6.30;2.47;;;;;;;;;;4975327;28;20164;-85
2021/03/29 16:22:15;;;;;;;8.18;2.55;;;;;;;;;;4993059;28;20262;-85
2021/03/29 16:25:02;;;;;;;8.65;2.50;;;;;;;;;;4998047;28;20077;-87
2021/03/29 16:27:47;;;;;;;27.05;14.95;;;;;;;;;;4989070;28;20061;-84
2021/03/29 16:30:33;;;;;;;15.15;9.02;;;;;;;;;;5003317;28;20175;-86
2021/03/29 16:33:20;;;;;;;7.65;3.00;;;;;;;;;;5005339;28;20034;-87
2021/03/29 16:36:05;;;;;;;7.97;3.10;;;;;;;;;;4971036;28;20480;-86
2021/03/29 16:38:51;;;;;;;9.57;3.15;;;;;;;;;;5006036;28;20133;-86
2021/03/29 16:41:37;;;;;;;5.38;2.50;;;;;;;;;;4989911;28;20109;-86
2021/03/29 16:44:22;;;;;;;9.70;2.50;;;;;;;;;;4996570;28;20658;-87
2021/03/29 16:47:08;;;;;;;5.97;2.13;;;;;;;;;;4987910;28;20024;-86